Time;durP1;ratioP1;P1;durP2;ratioP2;P2;SDS_P1;SDS_P2;PMS_P1;PMS_P2;Temp;Humidity;BMP_temperature;BMP_pressure;BME280_temperature;BME280_humidity;BME280_pressure;Samples;Min_cycle;Max_cycle;Signal;HPM_P1;HPM_P2
2022/04/24 00:01:30;;;;;;;;;1.00;1.00;;;;;;;;5090302;27;51115;-48
2022/04/24 00:04:15;;;;;;;;;0.00;0.00;;;;;;;;5097830;27;51390;-47
2022/04/24 00:07:02;;;;;;;;;0.50;0.00;;;;;;;;5100217;27;51191;-49
2022/04/24 00:09:47;;;;;;;;;2.00;0.00;;;;;;;;5093133;27;51091;-46
2022/04/24 00:12:38;;;;;;;;;0.75;0.75;;;;;;;;5101125;27;51496;-50
2022/04/24 00:15:23;;;;;;;;;4.50;0.00;;;;;;;;5091791;27;51057;-50
2022/04/24 00:18:18;;;;;;;;;4.75;1.50;;;;;;;;5079250;27;51041;-48
2022/04/24 00:21:08;;;;;;;;;9.75;7.00;;;;;;;;5081198;27;51259;-47
2022/04/24 00:23:56;;;;;;;;;9.00;6.00;;;;;;;;5080204;27;51020;-46
2022/04/24 00:26:43;;;;;;;;;2.25;2.25;;;;;;;;5079458;27;51224;-47
2022/04/24 00:29:28;;;;;;;;;5.00;2.75;;;;;;;;5080385;27;51148;-48
2022/04/24 00:32:13;;;;;;;;;1.50;1.25;;;;;;;;5091768;27;51174;-50
2022/04/24 00:35:02;;;;;;;;;2.50;0.75;;;;;;;;5079499;27;51279;-48
2022/04/24 00:37:48;;;;;;;;;1.75;0.75;;;;;;;;5077840;27;51523;-48
2022/04/24 00:40:32;;;;;;;;;0.00;0.00;;;;;;;;5080318;27;51115;-49
2022/04/24 00:43:18;;;;;;;;;3.00;1.00;;;;;;;;5085386;27;51141;-46
2022/04/24 00:46:29;;;;;;;;;1.25;1.25;;;;;;;;5100561;27;51139;-47
2022/04/24 00:49:13;;;;;;;;;3.75;3.75;;;;;;;;5100597;27;51051;-49
2022/04/24 00:52:04;;;;;;;;;6.00;2.50;;;;;;;;5100417;27;50981;-49
2022/04/24 00:54:49;;;;;;;;;0.75;0.75;;;;;;;;5091416;27;51173;-47
2022/04/24 00:57:44;;;;;;;;;0.75;0.75;;;;;;;;5079888;27;51194;-47
2022/04/24 01:00:29;;;;;;;;;1.75;0.00;;;;;;;;5093944;27;51119;-48
2022/04/24 01:03:18;;;;;;;;;4.75;0.75;;;;;;;;5100102;27;51072;-47
2022/04/24 01:06:04;;;;;;;;;1.75;0.00;;;;;;;;5100343;27;51158;-48
2022/04/24 01:08:49;;;;;;;;;0.50;0.00;;;;;;;;5100437;27;51174;-49
2022/04/24 01:11:37;;;;;;;;;1.75;0.75;;;;;;;;5090107;27;51135;-48
2022/04/24 01:14:25;;;;;;;;;0.00;0.00;;;;;;;;5099758;27;51357;-49
2022/04/24 01:17:11;;;;;;;;;0.00;0.00;;;;;;;;5099825;27;51103;-50
2022/04/24 01:19:58;;;;;;;;;0.75;0.00;;;;;;;;5084557;27;51312;-47
2022/04/24 01:22:43;;;;;;;;;0.00;0.00;;;;;;;;5079677;27;51163;-49
2022/04/24 01:25:48;;;;;;;;;0.00;0.00;;;;;;;;5079966;27;51032;-48
2022/04/24 01:28:35;;;;;;;;;1.75;0.00;;;;;;;;5079537;27;51162;-49
2022/04/24 01:31:20;;;;;;;;;4.00;0.00;;;;;;;;5079428;27;51412;-48
2022/04/24 01:34:07;;;;;;;;;0.75;0.00;;;;;;;;5079671;27;51120;-48
2022/04/24 01:36:52;;;;;;;;;0.00;0.00;;;;;;;;5091811;27;51207;-50
2022/04/24 01:39:38;;;;;;;;;0.00;0.00;;;;;;;;5083215;27;51341;-46
2022/04/24 01:42:24;;;;;;;;;1.00;0.00;;;;;;;;5083690;27;51140;-47
2022/04/24 01:45:09;;;;;;;;;2.25;0.00;;;;;;;;5083721;27;51170;-46
2022/04/24 01:47:54;;;;;;;;;0.00;0.00;;;;;;;;5083567;27;51045;-48
2022/04/24 01:50:38;;;;;;;;;0.00;0.00;;;;;;;;5097960;27;51199;-48
2022/04/24 01:53:23;;;;;;;;;0.00;0.00;;;;;;;;5083386;27;51029;-47
2022/04/24 01:56:08;;;;;;;;;0.00;0.00;;;;;;;;5083608;27;51497;-48
2022/04/24 01:58:59;;;;;;;;;0.00;0.00;;;;;;;;5091610;27;51198;-48
2022/04/24 02:01:45;;;;;;;;;0.00;0.00;;;;;;;;5083315;27;51097;-50
2022/04/24 02:04:47;;;;;;;;;0.00;0.00;;;;;;;;5100287;27;51429;-48
2022/04/24 02:07:33;;;;;;;;;1.00;0.00;;;;;;;;5098856;27;51200;-46
2022/04/24 02:10:19;;;;;;;;;3.50;0.00;;;;;;;;5104048;27;51380;-50
2022/04/24 02:13:05;;;;;;;;;0.00;0.00;;;;;;;;5092806;27;51099;-47
2022/04/24 02:15:50;;;;;;;;;1.00;0.00;;;;;;;;5083229;27;51079;-48
2022/04/24 02:18:38;;;;;;;;;0.25;0.00;;;;;;;;5089387;27;51058;-47
2022/04/24 02:21:22;;;;;;;;;1.50;0.00;;;;;;;;5103366;27;51088;-47
2022/04/24 02:24:07;;;;;;;;;1.75;0.00;;;;;;;;5082601;27;51010;-46
2022/04/24 02:27:03;;;;;;;;;0.50;0.00;;;;;;;;5083145;27;50998;-50
2022/04/24 02:29:57;;;;;;;;;0.50;0.50;;;;;;;;5082610;27;51357;-47
2022/04/24 02:32:45;;;;;;;;;0.00;0.00;;;;;;;;5082812;27;51114;-48
2022/04/24 02:35:30;;;;;;;;;0.00;0.00;;;;;;;;5082914;27;51161;-47
2022/04/24 02:38:16;;;;;;;;;0.00;0.00;;;;;;;;5096897;27;51087;-50
2022/04/24 02:41:01;;;;;;;;;2.50;0.00;;;;;;;;5103113;27;51269;-49
2022/04/24 02:43:46;;;;;;;;;1.00;0.00;;;;;;;;5087226;27;51136;-48
2022/04/24 02:46:30;;;;;;;;;1.00;0.00;;;;;;;;5082396;27;51236;-49
2022/04/24 02:49:20;;;;;;;;;0.75;0.00;;;;;;;;5081004;27;51014;-46
2022/04/24 02:52:06;;;;;;;;;0.00;0.00;;;;;;;;5082819;27;51080;-50
2022/04/24 02:54:50;;;;;;;;;0.50;0.00;;;;;;;;5082332;27;51539;-46
2022/04/24 02:57:40;;;;;;;;;0.00;0.00;;;;;;;;5089800;27;51246;-47
2022/04/24 03:03:18;;;;;;;;;1.50;0.00;;;;;;;;5056033;28;51194;-47
2022/04/24 03:06:04;;;;;;;;;1.00;0.00;;;;;;;;5052991;28;51197;-48
2022/04/24 03:08:55;;;;;;;;;2.25;0.00;;;;;;;;5052460;28;51178;-50
2022/04/24 03:11:40;;;;;;;;;0.00;0.00;;;;;;;;5059485;28;51486;-48
2022/04/24 03:14:25;;;;;;;;;2.50;0.00;;;;;;;;5041688;28;51162;-48
2022/04/24 03:17:11;;;;;;;;;0.00;0.00;;;;;;;;5039723;28;51214;-48
2022/04/24 03:19:58;;;;;;;;;1.25;0.00;;;;;;;;5041826;28;51539;-52
2022/04/24 03:22:45;;;;;;;;;0.00;0.00;;;;;;;;5058976;28;51199;-49
2022/04/24 03:25:29;;;;;;;;;0.75;0.00;;;;;;;;5058993;28;51123;-47
2022/04/24 03:28:14;;;;;;;;;1.00;1.00;;;;;;;;5044397;28;51160;-49
2022/04/24 03:31:02;;;;;;;;;1.75;0.25;;;;;;;;5038941;28;51287;-50
2022/04/24 03:33:50;;;;;;;;;1.00;0.00;;;;;;;;5049331;28;51224;-49
2022/04/24 03:36:35;;;;;;;;;2.00;0.00;;;;;;;;5058919;28;51214;-49
2022/04/24 03:39:22;;;;;;;;;0.00;0.00;;;;;;;;5047152;27;51108;-48
2022/04/24 03:42:08;;;;;;;;;1.25;0.00;;;;;;;;5095164;27;51115;-50
2022/04/24 03:44:56;;;;;;;;;1.50;0.25;;;;;;;;5101236;27;51090;-49
2022/04/24 03:47:42;;;;;;;;;0.00;0.00;;;;;;;;5092506;27;51125;-50
2022/04/24 03:50:27;;;;;;;;;0.00;0.00;;;;;;;;5097238;27;51396;-47
2022/04/24 03:53:23;;;;;;;;;1.00;0.75;;;;;;;;5100823;27;51055;-47
2022/04/24 03:56:07;;;;;;;;;1.00;0.00;;;;;;;;5102202;27;51059;-49
2022/04/24 03:58:52;;;;;;;;;1.50;0.00;;;;;;;;5101375;27;51096;-50
2022/04/24 04:01:39;;;;;;;;;2.25;0.00;;;;;;;;5102091;27;51386;-48
2022/04/24 04:04:25;;;;;;;;;0.50;0.50;;;;;;;;5081283;27;51131;-47
2022/04/24 04:07:16;;;;;;;;;1.00;0.75;;;;;;;;5081486;27;51184;-48
2022/04/24 04:10:01;;;;;;;;;0.00;0.00;;;;;;;;5080743;27;51111;-47
2022/04/24 04:12:47;;;;;;;;;0.75;0.00;;;;;;;;5097883;27;51181;-50
2022/04/24 04:15:35;;;;;;;;;0.25;0.00;;;;;;;;5101469;27;51142;-50
2022/04/24 04:18:28;;;;;;;;;0.50;0.00;;;;;;;;5101270;27;51087;-48
2022/04/24 04:21:17;;;;;;;;;0.75;0.00;;;;;;;;5089939;27;50996;-49
2022/04/24 04:24:03;;;;;;;;;0.00;0.00;;;;;;;;5080136;27;51144;-48
2022/04/24 04:26:49;;;;;;;;;2.25;0.00;;;;;;;;5096276;27;51660;-49
2022/04/24 04:29:35;;;;;;;;;1.75;0.75;;;;;;;;5101074;27;51031;-48
2022/04/24 04:32:23;;;;;;;;;5.25;0.00;;;;;;;;5081415;27;51124;-48
2022/04/24 04:35:09;;;;;;;;;1.75;0.50;;;;;;;;5081008;27;51157;-50
2022/04/24 04:37:54;;;;;;;;;0.75;0.75;;;;;;;;5085500;27;51027;-50
2022/04/24 04:40:40;;;;;;;;;1.25;0.00;;;;;;;;5085594;27;51001;-50
2022/04/24 04:43:30;;;;;;;;;1.75;0.75;;;;;;;;5097870;27;51072;-48
2022/04/24 04:46:15;;;;;;;;;3.00;1.50;;;;;;;;5089026;27;51022;-50
2022/04/24 04:49:01;;;;;;;;;0.75;0.50;;;;;;;;5087495;27;51167;-50
2022/04/24 04:51:52;;;;;;;;;1.50;0.00;;;;;;;;5096017;27;51443;-49
2022/04/24 04:54:41;;;;;;;;;0.75;0.50;;;;;;;;5088549;27;51068;-49
2022/04/24 04:57:35;;;;;;;;;2.75;2.25;;;;;;;;5080048;27;51056;-50
2022/04/24 05:00:19;;;;;;;;;4.00;1.00;;;;;;;;5079544;27;51172;-49
2022/04/24 05:03:06;;;;;;;;;4.00;1.00;;;;;;;;5080094;27;51113;-48
2022/04/24 05:06:01;;;;;;;;;3.00;1.25;;;;;;;;5087481;27;51063;-47
2022/04/24 05:08:45;;;;;;;;;2.00;1.00;;;;;;;;5080395;27;51079;-47
2022/04/24 05:11:30;;;;;;;;;2.25;0.75;;;;;;;;5079196;27;51263;-48
2022/04/24 05:14:14;;;;;;;;;4.25;3.75;;;;;;;;5080034;27;51109;-50
2022/04/24 05:17:00;;;;;;;;;2.25;2.25;;;;;;;;5093529;27;51308;-47
2022/04/24 05:19:46;;;;;;;;;2.75;1.50;;;;;;;;5099972;27;51146;-47
2022/04/24 05:22:31;;;;;;;;;5.50;1.00;;;;;;;;5099892;27;51079;-47
2022/04/24 05:25:19;;;;;;;;;4.50;4.00;;;;;;;;5079677;27;51366;-47
2022/04/24 05:28:06;;;;;;;;;2.75;1.50;;;;;;;;5079795;27;51266;-47
2022/04/24 05:30:51;;;;;;;;;3.75;1.75;;;;;;;;5099754;27;51061;-46
2022/04/24 05:33:37;;;;;;;;;0.75;0.75;;;;;;;;5100139;27;51080;-48
2022/04/24 05:36:24;;;;;;;;;0.75;0.75;;;;;;;;5100076;27;51355;-49
2022/04/24 05:39:30;;;;;;;;;0.50;0.50;;;;;;;;5079900;27;51117;-49
2022/04/24 05:42:16;;;;;;;;;1.75;0.00;;;;;;;;5079750;27;51458;-48
2022/04/24 05:45:01;;;;;;;;;1.75;0.75;;;;;;;;5099319;27;51178;-47
2022/04/24 05:47:53;;;;;;;;;0.00;0.00;;;;;;;;5082331;27;50966;-48
2022/04/24 05:50:49;;;;;;;;;0.25;0.00;;;;;;;;5079295;27;51348;-48
2022/04/24 05:53:35;;;;;;;;;0.00;0.00;;;;;;;;5079771;27;51271;-49
2022/04/24 05:56:19;;;;;;;;;4.25;0.00;;;;;;;;5092921;27;51115;-49
2022/04/24 05:59:04;;;;;;;;;1.00;0.75;;;;;;;;5099699;27;50981;-48
2022/04/24 06:01:48;;;;;;;;;0.00;0.00;;;;;;;;5099940;27;51131;-46
2022/04/24 06:04:35;;;;;;;;;4.00;1.00;;;;;;;;5100189;27;51196;-48
2022/04/24 06:07:23;;;;;;;;;2.50;0.25;;;;;;;;5100302;27;51478;-47
2022/04/24 06:10:11;;;;;;;;;2.25;1.50;;;;;;;;5099455;27;51239;-49
2022/04/24 06:13:00;;;;;;;;;0.00;0.00;;;;;;;;5090452;27;50980;-49
2022/04/24 06:15:47;;;;;;;;;2.75;0.00;;;;;;;;5093211;27;51481;-48
2022/04/24 06:18:32;;;;;;;;;0.75;0.25;;;;;;;;5079520;27;51316;-48
2022/04/24 06:21:23;;;;;;;;;0.75;0.75;;;;;;;;5078593;27;51026;-47
2022/04/24 06:24:09;;;;;;;;;1.00;1.00;;;;;;;;5081035;27;51061;-49
2022/04/24 06:26:54;;;;;;;;;4.75;0.75;;;;;;;;5082578;27;51431;-47
2022/04/24 06:29:43;;;;;;;;;6.75;1.75;;;;;;;;5082983;27;51144;-48
2022/04/24 06:32:28;;;;;;;;;1.00;1.00;;;;;;;;5082760;27;51469;-48
2022/04/24 06:35:31;;;;;;;;;2.00;0.75;;;;;;;;5082539;27;51049;-46
2022/04/24 06:38:19;;;;;;;;;0.00;0.00;;;;;;;;5081762;27;51203;-47
2022/04/24 06:41:32;;;;;;;;;1.75;1.75;;;;;;;;5090272;27;51365;-49
2022/04/24 06:44:20;;;;;;;;;11.50;10.00;;;;;;;;5103008;27;51168;-48
2022/04/24 06:47:33;;;;;;;;;3.75;3.75;;;;;;;;5103128;27;51184;-48
2022/04/24 06:50:19;;;;;;;;;3.00;3.00;;;;;;;;5099732;27;50942;-48
2022/04/24 06:53:20;;;;;;;;;2.75;1.25;;;;;;;;5096282;27;51581;-48
2022/04/24 06:56:04;;;;;;;;;0.75;0.75;;;;;;;;5082702;27;51200;-50
2022/04/24 06:58:51;;;;;;;;;1.00;1.00;;;;;;;;5082962;27;51129;-48
2022/04/24 07:01:42;;;;;;;;;3.00;1.75;;;;;;;;5081608;27;51203;-47
2022/04/24 07:04:26;;;;;;;;;3.00;0.75;;;;;;;;5082271;27;51041;-49
2022/04/24 07:07:12;;;;;;;;;3.50;1.75;;;;;;;;5097266;27;51552;-48
2022/04/24 07:10:02;;;;;;;;;3.00;2.00;;;;;;;;5102501;27;51022;-48
2022/04/24 07:13:03;;;;;;;;;8.25;6.00;;;;;;;;5102455;27;51445;-50
2022/04/24 07:15:52;;;;;;;;;20.00;13.00;;;;;;;;5102110;27;51171;-49
2022/04/24 07:18:46;;;;;;;;;66.75;52.25;;;;;;;;5092867;27;51150;-47
2022/04/24 07:21:41;;;;;;;;;58.50;45.50;;;;;;;;5081657;27;51062;-49
2022/04/24 07:24:29;;;;;;;;;121.00;108.25;;;;;;;;5081940;27;51039;-49
2022/04/24 07:27:16;;;;;;;;;64.50;49.75;;;;;;;;5087083;27;51100;-48
2022/04/24 07:30:00;;;;;;;;;56.50;44.50;;;;;;;;5081570;27;51081;-48
2022/04/24 07:32:55;;;;;;;;;40.00;28.00;;;;;;;;5081278;27;51654;-46
2022/04/24 07:35:40;;;;;;;;;73.25;62.75;;;;;;;;5081378;27;51104;-49
2022/04/24 07:38:25;;;;;;;;;59.50;44.75;;;;;;;;5096473;27;51111;-51
2022/04/24 07:41:21;;;;;;;;;35.00;29.25;;;;;;;;5102498;27;51130;-49
2022/04/24 07:44:09;;;;;;;;;33.25;29.75;;;;;;;;5102166;27;51245;-47
2022/04/24 07:46:53;;;;;;;;;57.75;45.75;;;;;;;;5101935;27;51058;-51
2022/04/24 07:49:51;;;;;;;;;51.75;41.00;;;;;;;;5058439;28;51595;-49
2022/04/24 07:52:39;;;;;;;;;66.00;53.25;;;;;;;;5058404;28;51056;-49
2022/04/24 07:55:29;;;;;;;;;80.50;71.00;;;;;;;;5059148;28;51136;-48
2022/04/24 07:58:19;;;;;;;;;78.00;58.00;;;;;;;;5043763;28;51103;-49
2022/04/24 08:01:03;;;;;;;;;83.00;73.00;;;;;;;;5058276;28;51083;-52
2022/04/24 08:03:48;;;;;;;;;50.00;41.50;;;;;;;;5043620;28;51181;-49
2022/04/24 08:06:33;;;;;;;;;44.50;36.00;;;;;;;;5058913;28;51119;-50
2022/04/24 08:09:17;;;;;;;;;41.00;32.50;;;;;;;;5057909;28;51009;-48
2022/04/24 08:12:02;;;;;;;;;62.25;47.75;;;;;;;;5058279;28;51145;-49
2022/04/24 08:14:49;;;;;;;;;33.00;25.50;;;;;;;;5058977;28;51280;-51
2022/04/24 08:17:36;;;;;;;;;22.75;21.75;;;;;;;;5058113;28;51018;-47
2022/04/24 08:20:23;;;;;;;;;23.75;21.25;;;;;;;;5053300;28;51143;-48
2022/04/24 08:23:21;;;;;;;;;18.50;11.50;;;;;;;;5057986;28;51167;-47
2022/04/24 08:26:07;;;;;;;;;17.75;17.00;;;;;;;;5068126;27;51202;-51
2022/04/24 08:28:56;;;;;;;;;13.75;10.50;;;;;;;;5080418;27;51211;-50
2022/04/24 08:31:46;;;;;;;;;9.25;8.00;;;;;;;;5080740;27;51036;-50
2022/04/24 08:34:32;;;;;;;;;16.75;11.25;;;;;;;;5098771;27;51407;-48
2022/04/24 08:37:17;;;;;;;;;5.25;3.00;;;;;;;;5083011;27;51242;-48
2022/04/24 08:40:05;;;;;;;;;6.25;3.25;;;;;;;;5094676;27;51047;-49
2022/04/24 08:43:00;;;;;;;;;7.50;5.75;;;;;;;;5085469;27;51084;-50
2022/04/24 08:45:47;;;;;;;;;5.50;2.75;;;;;;;;5087234;27;51070;-51
2022/04/24 08:48:33;;;;;;;;;2.00;2.00;;;;;;;;5089298;27;51396;-51
2022/04/24 08:51:24;;;;;;;;;5.75;3.75;;;;;;;;5093347;27;51047;-50
2022/04/24 08:54:12;;;;;;;;;5.25;3.00;;;;;;;;5080250;27;51038;-49
2022/04/24 08:56:58;;;;;;;;;6.25;2.50;;;;;;;;5096291;27;50977;-50
2022/04/24 08:59:43;;;;;;;;;9.25;5.00;;;;;;;;5079627;27;51027;-50
2022/04/24 09:02:30;;;;;;;;;7.25;5.50;;;;;;;;5080066;27;51066;-51
2022/04/24 09:05:15;;;;;;;;;7.50;3.00;;;;;;;;5093949;27;51350;-48
2022/04/24 09:08:07;;;;;;;;;6.75;4.00;;;;;;;;5088720;27;51012;-50
2022/04/24 09:11:14;;;;;;;;;8.75;4.00;;;;;;;;5089929;27;51148;-48
2022/04/24 09:14:14;;;;;;;;;7.25;3.75;;;;;;;;5080365;27;51408;-50
2022/04/24 09:17:11;;;;;;;;;3.50;2.75;;;;;;;;5079647;27;51130;-50
2022/04/24 09:19:59;;;;;;;;;7.00;2.25;;;;;;;;5096516;27;51171;-52
2022/04/24 09:22:43;;;;;;;;;8.75;4.75;;;;;;;;5100386;27;51118;-49
2022/04/24 09:25:44;;;;;;;;;5.75;4.75;;;;;;;;5100141;27;51127;-47
2022/04/24 09:28:36;;;;;;;;;0.75;0.00;;;;;;;;5100328;27;51031;-49
2022/04/24 09:31:34;;;;;;;;;10.25;3.50;;;;;;;;5100267;27;51271;-50
2022/04/24 09:34:19;;;;;;;;;4.00;2.50;;;;;;;;5099800;27;51079;-51
2022/04/24 09:37:08;;;;;;;;;4.75;3.50;;;;;;;;5100073;27;51039;-50
2022/04/24 09:39:55;;;;;;;;;6.00;4.75;;;;;;;;5099139;27;51487;-48
2022/04/24 09:42:52;;;;;;;;;5.00;4.50;;;;;;;;5100052;27;52792;-50
2022/04/24 09:45:37;;;;;;;;;9.00;3.50;;;;;;;;5079594;27;51154;-51
2022/04/24 09:48:23;;;;;;;;;16.00;5.75;;;;;;;;5082275;27;51178;-49
2022/04/24 09:51:11;;;;;;;;;10.25;5.50;;;;;;;;5099608;27;51167;-47
2022/04/24 09:53:58;;;;;;;;;6.75;6.00;;;;;;;;5099859;27;51061;-48
2022/04/24 09:56:45;;;;;;;;;8.25;6.50;;;;;;;;5099903;27;51099;-48
2022/04/24 09:59:30;;;;;;;;;16.25;9.50;;;;;;;;5083240;27;51271;-51
2022/04/24 10:02:15;;;;;;;;;12.50;8.50;;;;;;;;5083357;27;51044;-48
2022/04/24 10:05:04;;;;;;;;;9.00;7.00;;;;;;;;5099287;27;51127;-50
2022/04/24 10:07:51;;;;;;;;;12.25;9.50;;;;;;;;5103812;27;51074;-51
2022/04/24 10:10:37;;;;;;;;;10.75;8.00;;;;;;;;5091060;27;50312;-53
2022/04/24 10:13:23;;;;;;;;;9.25;8.25;;;;;;;;4776659;27;3322143;-54
2022/04/24 10:16:59;;;;;;;;;;;;;;;;;;1016689;27;75617457;-53
2022/04/24 10:22:11;;;;;;;;;1.00;1.00;;;;;;;;464577;27;130171916;-53
2022/04/24 10:25:04;;;;;;;;;8.50;8.50;;;;;;;;2918208;27;48018897;-51
2022/04/24 10:27:52;;;;;;;;;26.25;19.25;;;;;;;;3046370;27;57142863;-50
2022/04/24 10:30:36;;;;;;;;;10.25;8.00;;;;;;;;4927748;27;4809014;-49
2022/04/24 10:33:22;;;;;;;;;14.75;8.75;;;;;;;;4966465;27;4085839;-51
2022/04/24 10:36:14;;;;;;;;;9.75;4.75;;;;;;;;5063549;27;1152025;-48
2022/04/24 10:43:48;;;;;;;;;2.00;2.00;;;;;;;;345218;27;157578201;-48
2022/04/24 10:50:44;;;;;;;;;4.50;4.50;;;;;;;;3;130567322;139562654;-50
2022/04/24 10:55:40;;;;;;;;;;;;;;;;;;2;157569589;157569589;-51
2022/04/24 11:02:28;;;;;;;;;4.00;4.00;;;;;;;;3;130573344;139562865;-51
2022/04/24 11:07:25;;;;;;;;;;;;;;;;;;2;157569020;157569020;-51
2022/04/24 11:14:22;;;;;;;;;8.50;4.50;;;;;;;;3;130571298;139562068;-49
2022/04/24 11:19:20;;;;;;;;;;;;;;;;;;2;157571350;157571350;-52
2022/04/24 11:22:13;;;;;;;;;7.75;3.00;;;;;;;;4273872;27;24173591;-49
2022/04/24 11:25:04;;;;;;;;;8.00;3.75;;;;;;;;5121156;27;8733;-52
2022/04/24 11:27:56;;;;;;;;;8.75;3.25;;;;;;;;5119015;27;8816;-51
2022/04/24 11:31:08;;;;;;;;;6.00;4.50;;;;;;;;5128276;27;8773;-49
2022/04/24 11:34:01;;;;;;;;;6.75;4.75;;;;;;;;5136867;27;8782;-50
2022/04/24 11:36:51;;;;;;;;;8.50;5.25;;;;;;;;5139893;27;8774;-52
2022/04/24 11:39:40;;;;;;;;;8.00;8.00;;;;;;;;5131485;27;8790;-49
2022/04/24 11:43:42;;;;;;;;;;;;;;;;;;3;106559529;117000596;-52
2022/04/24 11:52:36;;;;;;;;;4.33;4.33;;;;;;;;4803952;27;9380850;-52
2022/04/24 11:59:34;;;;;;;;;6.50;6.50;;;;;;;;706282;27;139340714;-50
2022/04/24 12:03:21;;;;;;;;;;;;;;;;;;4078182;27;92379714;-52
2022/04/24 12:06:07;;;;;;;;;11.00;5.50;;;;;;;;5132748;27;13350;-49
2022/04/24 12:08:54;;;;;;;;;9.75;5.50;;;;;;;;5123420;27;8828;-48
2022/04/24 12:12:10;;;;;;;;;22.75;18.25;;;;;;;;5118630;27;8797;-50
2022/04/24 12:16:29;;;;;;;;;;;;;;;;;;883766;27;107943521;-48
2022/04/24 12:19:18;;;;;;;;;16.33;10.67;;;;;;;;4821345;27;5860588;-49
2022/04/24 12:22:08;;;;;;;;;17.00;10.33;;;;;;;;4952042;27;4830294;-50
2022/04/24 12:24:53;;;;;;;;;12.00;7.75;;;;;;;;5130279;27;11484;-48
2022/04/24 12:27:38;;;;;;;;;15.25;11.00;;;;;;;;5130237;27;8818;-50
2022/04/24 12:30:32;;;;;;;;;12.00;10.25;;;;;;;;5138269;27;8798;-49
2022/04/24 12:33:18;;;;;;;;;10.00;6.75;;;;;;;;5128872;27;8820;-48
2022/04/24 12:36:13;;;;;;;;;11.75;5.75;;;;;;;;5118097;27;8781;-49
2022/04/24 12:38:57;;;;;;;;;8.25;6.00;;;;;;;;5117848;27;8825;-50
2022/04/24 12:41:43;;;;;;;;;22.50;13.00;;;;;;;;5126795;27;8927;-50
2022/04/24 12:44:28;;;;;;;;;8.75;6.75;;;;;;;;5117676;27;8796;-50
2022/04/24 12:47:20;;;;;;;;;34.75;29.50;;;;;;;;5117849;27;8820;-50
2022/04/24 12:50:12;;;;;;;;;21.25;14.00;;;;;;;;5117718;27;8781;-48
2022/04/24 12:53:01;;;;;;;;;36.00;30.50;;;;;;;;5117791;27;8784;-50
2022/04/24 12:55:46;;;;;;;;;21.50;16.75;;;;;;;;5121659;27;8782;-49
2022/04/24 12:58:43;;;;;;;;;13.00;8.50;;;;;;;;5136022;27;8797;-48
2022/04/24 13:01:30;;;;;;;;;16.50;9.25;;;;;;;;5135437;27;8797;-52
2022/04/24 13:04:27;;;;;;;;;12.25;4.75;;;;;;;;5130980;27;8789;-50
2022/04/24 13:07:12;;;;;;;;;12.00;6.50;;;;;;;;5133229;27;8794;-49
2022/04/24 13:09:58;;;;;;;;;9.75;6.00;;;;;;;;5124820;27;8769;-49
2022/04/24 13:12:44;;;;;;;;;8.75;7.50;;;;;;;;5117409;27;8915;-51
2022/04/24 13:15:32;;;;;;;;;16.75;8.75;;;;;;;;5117154;27;8792;-50
2022/04/24 13:18:18;;;;;;;;;16.75;8.25;;;;;;;;5117611;27;8832;-51
2022/04/24 13:21:12;;;;;;;;;14.00;8.50;;;;;;;;5130781;27;8944;-48
2022/04/24 13:24:02;;;;;;;;;15.00;7.25;;;;;;;;5137896;27;8766;-50
2022/04/24 13:26:48;;;;;;;;;18.25;10.00;;;;;;;;5118057;27;8784;-52
2022/04/24 13:29:34;;;;;;;;;15.50;10.25;;;;;;;;5117074;27;9559;-49
2022/04/24 13:32:22;;;;;;;;;11.00;8.50;;;;;;;;5133218;27;8770;-48
2022/04/24 13:35:07;;;;;;;;;12.50;9.25;;;;;;;;5141884;27;8770;-49
2022/04/24 13:41:01;;;;;;;;;8.75;5.25;;;;;;;;5141373;27;8777;-50
2022/04/24 13:43:46;;;;;;;;;7.00;6.50;;;;;;;;5140934;27;8763;-49
2022/04/24 13:46:31;;;;;;;;;13.00;6.25;;;;;;;;5141982;27;9573;-49
2022/04/24 13:49:16;;;;;;;;;5.75;4.25;;;;;;;;5136702;27;8924;-52
2022/04/24 13:52:03;;;;;;;;;6.75;3.75;;;;;;;;5132499;27;8817;-51
2022/04/24 13:54:47;;;;;;;;;6.50;3.25;;;;;;;;5123206;27;8793;-48
2022/04/24 13:57:39;;;;;;;;;6.75;3.25;;;;;;;;5121010;27;8796;-49
2022/04/24 14:00:24;;;;;;;;;4.50;4.25;;;;;;;;5135914;27;8786;-49
2022/04/24 14:03:09;;;;;;;;;3.25;1.25;;;;;;;;5141613;27;8798;-50
2022/04/24 14:05:55;;;;;;;;;4.50;1.25;;;;;;;;5141467;27;8932;-52
2022/04/24 14:09:01;;;;;;;;;5.50;3.75;;;;;;;;5141431;27;8814;-50
2022/04/24 14:11:48;;;;;;;;;4.75;2.00;;;;;;;;5124218;27;8793;-51
2022/04/24 14:14:34;;;;;;;;;5.50;2.00;;;;;;;;5127466;27;8790;-49
2022/04/24 14:17:43;;;;;;;;;6.75;4.00;;;;;;;;5129615;27;8915;-50
2022/04/24 14:20:49;;;;;;;;;5.75;4.00;;;;;;;;5129310;27;8800;-51
2022/04/24 14:23:36;;;;;;;;;4.75;3.75;;;;;;;;5120564;27;8789;-49
2022/04/24 14:26:25;;;;;;;;;1.75;1.50;;;;;;;;5120995;27;8813;-50
2022/04/24 14:29:19;;;;;;;;;7.50;3.75;;;;;;;;5124360;27;8805;-50
2022/04/24 14:32:05;;;;;;;;;6.00;3.00;;;;;;;;5132144;27;8778;-49
2022/04/24 14:34:51;;;;;;;;;4.75;2.75;;;;;;;;5141234;27;8786;-48
2022/04/24 14:37:46;;;;;;;;;7.00;3.25;;;;;;;;5120424;27;8796;-52
2022/04/24 14:40:37;;;;;;;;;2.75;2.25;;;;;;;;5134035;27;8913;-50
2022/04/24 14:43:32;;;;;;;;;4.50;2.25;;;;;;;;5137201;27;8800;-52
2022/04/24 14:58:54;;;;;;;;;3.75;2.25;;;;;;;;5119777;27;8777;-49
2022/04/24 15:01:40;;;;;;;;;6.25;2.00;;;;;;;;5133692;27;8785;-52
2022/04/24 15:04:26;;;;;;;;;7.00;5.25;;;;;;;;5120009;27;8805;-50
2022/04/24 15:07:11;;;;;;;;;10.75;2.75;;;;;;;;5128559;27;8813;-51
2022/04/24 15:09:58;;;;;;;;;14.00;11.25;;;;;;;;5119740;27;9702;-53
2022/04/24 15:12:46;;;;;;;;;11.50;6.00;;;;;;;;5123402;27;8826;-51
2022/04/24 15:15:33;;;;;;;;;9.75;5.00;;;;;;;;5128890;27;8776;-49
2022/04/24 15:18:17;;;;;;;;;15.00;6.00;;;;;;;;5119460;27;8800;-49
2022/04/24 15:21:03;;;;;;;;;6.50;4.00;;;;;;;;5125298;27;8786;-50
2022/04/24 15:23:52;;;;;;;;;3.50;1.75;;;;;;;;5138501;27;8805;-50
2022/04/24 15:26:40;;;;;;;;;1.75;1.00;;;;;;;;5118006;27;8797;-51
2022/04/24 15:29:33;;;;;;;;;5.75;3.25;;;;;;;;5128412;27;8806;-49
2022/04/24 15:32:23;;;;;;;;;4.00;2.00;;;;;;;;5132409;27;8903;-50
2022/04/24 15:35:13;;;;;;;;;6.00;2.00;;;;;;;;5134051;27;8806;-50
2022/04/24 15:37:58;;;;;;;;;3.50;0.75;;;;;;;;5131166;27;9556;-51
2022/04/24 15:40:44;;;;;;;;;7.00;3.00;;;;;;;;5129165;27;8796;-52
2022/04/24 15:43:29;;;;;;;;;5.50;3.00;;;;;;;;5118606;27;10265;-50
2022/04/24 15:46:24;;;;;;;;;11.25;4.75;;;;;;;;5124916;27;8798;-50
2022/04/24 15:49:10;;;;;;;;;4.25;3.25;;;;;;;;5139502;27;8825;-52
2022/04/24 15:51:57;;;;;;;;;4.50;0.75;;;;;;;;5139345;27;8798;-50
2022/04/24 15:54:41;;;;;;;;;8.50;3.50;;;;;;;;5139251;27;8778;-51
2022/04/24 15:57:27;;;;;;;;;4.50;3.00;;;;;;;;5139453;27;8790;-50
2022/04/24 16:00:12;;;;;;;;;4.25;2.00;;;;;;;;5134781;27;8801;-49
2022/04/24 16:02:58;;;;;;;;;3.75;1.75;;;;;;;;5118440;27;8816;-50
2022/04/24 16:05:47;;;;;;;;;4.75;2.00;;;;;;;;5118261;27;8781;-51
2022/04/24 16:08:32;;;;;;;;;6.25;2.00;;;;;;;;5118570;27;8816;-49
2022/04/24 16:11:33;;;;;;;;;6.75;3.50;;;;;;;;5118771;27;8789;-51
2022/04/24 16:14:21;;;;;;;;;9.50;5.00;;;;;;;;5118937;27;8785;-48
2022/04/24 16:17:27;;;;;;;;;6.25;1.75;;;;;;;;5118462;27;8789;-53
2022/04/24 16:20:14;;;;;;;;;2.00;2.00;;;;;;;;5121949;27;8774;-51
2022/04/24 16:23:02;;;;;;;;;6.75;2.00;;;;;;;;5128608;27;8806;-50
2022/04/24 16:25:48;;;;;;;;;5.50;2.25;;;;;;;;5118364;27;8796;-51
2022/04/24 16:28:59;;;;;;;;;3.50;3.00;;;;;;;;5091698;28;8825;-52
2022/04/24 16:31:44;;;;;;;;;6.75;3.75;;;;;;;;5095337;28;8808;-51
2022/04/24 16:34:28;;;;;;;;;6.50;3.00;;;;;;;;5095305;28;9808;-50
2022/04/24 16:37:14;;;;;;;;;23.50;18.00;;;;;;;;5094849;28;8815;-50
2022/04/24 16:40:01;;;;;;;;;46.00;34.75;;;;;;;;5095022;28;8793;-48
2022/04/24 16:42:49;;;;;;;;;27.75;22.25;;;;;;;;5095101;28;8797;-52
2022/04/24 16:45:40;;;;;;;;;54.00;43.50;;;;;;;;5095118;28;8776;-51
2022/04/24 16:48:27;;;;;;;;;16.75;15.00;;;;;;;;5086595;28;8823;-49
2022/04/24 17:00:28;;;;;;;;;10.75;10.75;;;;;;;;5094878;28;8792;-49
2022/04/24 17:03:15;;;;;;;;;17.00;13.00;;;;;;;;5109229;27;8797;-50
2022/04/24 17:06:01;;;;;;;;;18.75;15.25;;;;;;;;5134078;27;8813;-51
2022/04/24 17:08:46;;;;;;;;;19.75;16.00;;;;;;;;5123636;27;8812;-51
2022/04/24 17:11:31;;;;;;;;;28.50;24.50;;;;;;;;5117303;27;8789;-49
2022/04/24 17:14:15;;;;;;;;;26.00;23.25;;;;;;;;5135270;27;9622;-51
2022/04/24 17:17:05;;;;;;;;;18.75;17.25;;;;;;;;5131123;27;8816;-52
2022/04/24 17:20:10;;;;;;;;;24.00;16.25;;;;;;;;5117442;27;8797;-50
2022/04/24 17:23:01;;;;;;;;;21.50;16.00;;;;;;;;5117023;27;9552;-49
2022/04/24 17:25:47;;;;;;;;;31.25;24.25;;;;;;;;5117334;27;8764;-50
2022/04/24 17:28:36;;;;;;;;;22.50;16.00;;;;;;;;5127578;27;8826;-49
2022/04/24 17:31:24;;;;;;;;;25.50;17.75;;;;;;;;5137499;27;8793;-50
2022/04/24 17:34:11;;;;;;;;;18.00;16.00;;;;;;;;5122121;27;8777;-51
2022/04/24 17:36:59;;;;;;;;;23.75;20.00;;;;;;;;5130795;27;8762;-49
2022/04/24 17:39:43;;;;;;;;;12.50;9.00;;;;;;;;5134423;27;8785;-47
2022/04/24 17:42:31;;;;;;;;;21.50;15.25;;;;;;;;5126414;27;8785;-50
2022/04/24 17:45:18;;;;;;;;;27.00;22.50;;;;;;;;5130222;27;8797;-53
2022/04/24 17:48:03;;;;;;;;;30.25;23.00;;;;;;;;5121679;27;8790;-50
2022/04/24 17:50:53;;;;;;;;;28.25;21.50;;;;;;;;5125570;27;8781;-50
2022/04/24 17:53:38;;;;;;;;;27.50;21.25;;;;;;;;5134239;27;8790;-49
2022/04/24 17:56:28;;;;;;;;;27.50;22.25;;;;;;;;5136510;27;8916;-52